sensor_id;sensor_type;location;lat;lon;timestamp;temperature;humidity
27559;DHT22;15002;52.028;5.670;2023-10-08T00:01:36;20.60;99.90
27559;DHT22;15002;52.028;5.670;2023-10-08T00:04:08;20.70;99.90
27559;DHT22;15002;52.028;5.670;2023-10-08T00:06:34;20.60;99.90
27559;DHT22;15002;52.028;5.670;2023-10-08T00:09:00;20.60;99.90
27559;DHT22;15002;52.028;5.670;2023-10-08T00:11:28;20.60;99.90
27559;DHT22;15002;52.028;5.670;2023-10-08T00:13:56;20.60;99.90
27559;DHT22;15002;52.028;5.670;2023-10-08T00:16:22;20.50;99.90
27559;DHT22;15002;52.028;5.670;2023-10-08T00:18:48;20.50;99.90
27559;DHT22;15002;52.028;5.670;2023-10-08T00:21:17;20.50;99.90
27559;DHT22;15002;52.028;5.670;2023-10-08T00:23:51;20.50;99.90
27559;DHT22;15002;52.028;5.670;2023-10-08T00:26:23;20.40;99.90
27559;DHT22;15002;52.028;5.670;2023-10-08T00:29:03;20.50;99.90
27559;DHT22;15002;52.028;5.670;2023-10-08T00:31:33;20.50;99.90
27559;DHT22;15002;52.028;5.670;2023-10-08T00:34:06;20.40;99.90
27559;DHT22;15002;52.028;5.670;2023-10-08T00:36:40;20.40;99.90
27559;DHT22;15002;52.028;5.670;2023-10-08T00:39:07;20.30;99.90
27559;DHT22;15002;52.028;5.670;2023-10-08T00:41:44;20.30;99.90
27559;DHT22;15002;52.028;5.670;2023-10-08T00:44:11;20.40;99.90
27559;DHT22;15002;52.028;5.670;2023-10-08T00:46:49;20.30;99.90
27559;DHT22;15002;52.028;5.670;2023-10-08T00:49:21;20.30;99.90
27559;DHT22;15002;52.028;5.670;2023-10-08T00:51:47;20.30;99.90
27559;DHT22;15002;52.028;5.670;2023-10-08T00:54:18;20.30;99.90
27559;DHT22;15002;52.028;5.670;2023-10-08T00:56:46;20.20;99.90
27559;DHT22;15002;52.028;5.670;2023-10-08T00:59:15;20.30;99.90
27559;DHT22;15002;52.028;5.670;2023-10-08T01:01:45;20.30;99.90
27559;DHT22;15002;52.028;5.670;2023-10-08T01:04:25;20.30;99.90
27559;DHT22;15002;52.028;5.670;2023-10-08T01:07:01;20.20;99.90
27559;DHT22;15002;52.028;5.670;2023-10-08T01:09:41;20.20;99.90
27559;DHT22;15002;52.028;5.670;2023-10-08T01:14:46;20.20;99.90
27559;DHT22;15002;52.028;5.670;2023-10-08T01:17:14;20.20;99.90
27559;DHT22;15002;52.028;5.670;2023-10-08T01:19:45;20.10;99.90
27559;DHT22;15002;52.028;5.670;2023-10-08T01:22:25;20.30;99.90
27559;DHT22;15002;52.028;5.670;2023-10-08T01:24:55;20.20;99.90
27559;DHT22;15002;52.028;5.670;2023-10-08T01:27:21;20.10;99.90
27559;DHT22;15002;52.028;5.670;2023-10-08T01:29:48;20.20;99.90
27559;DHT22;15002;52.028;5.670;2023-10-08T01:32:16;20.30;99.90
27559;DHT22;15002;52.028;5.670;2023-10-08T01:34:43;20.20;99.90
27559;DHT22;15002;52.028;5.670;2023-10-08T01:37:19;20.20;99.90
27559;DHT22;15002;52.028;5.670;2023-10-08T01:39:47;20.20;99.90
27559;DHT22;15002;52.028;5.670;2023-10-08T01:42:15;20.20;99.90
27559;DHT22;15002;52.028;5.670;2023-10-08T01:44:49;20.20;99.90
27559;DHT22;15002;52.028;5.670;2023-10-08T01:47:20;20.10;99.90
27559;DHT22;15002;52.028;5.670;2023-10-08T01:49:46;20.20;99.90
27559;DHT22;15002;52.028;5.670;2023-10-08T01:52:12;20.10;99.90
27559;DHT22;15002;52.028;5.670;2023-10-08T01:54:43;20.10;99.90
27559;DHT22;15002;52.028;5.670;2023-10-08T01:57:10;20.00;99.90
27559;DHT22;15002;52.028;5.670;2023-10-08T01:59:35;20.00;99.90
27559;DHT22;15002;52.028;5.670;2023-10-08T02:02:04;20.00;99.90
27559;DHT22;15002;52.028;5.670;2023-10-08T02:04:34;20.00;99.90
27559;DHT22;15002;52.028;5.670;2023-10-08T02:07:04;20.00;99.90
27559;DHT22;15002;52.028;5.670;2023-10-08T02:09:36;20.00;99.90
27559;DHT22;15002;52.028;5.670;2023-10-08T02:12:03;20.00;99.90
27559;DHT22;15002;52.028;5.670;2023-10-08T02:14:29;20.10;99.90
27559;DHT22;15002;52.028;5.670;2023-10-08T02:16:58;20.00;99.90
27559;DHT22;15002;52.028;5.670;2023-10-08T02:19:29;20.00;99.90
27559;DHT22;15002;52.028;5.670;2023-10-08T02:21:55;20.00;99.90
27559;DHT22;15002;52.028;5.670;2023-10-08T02:24:22;20.10;99.90
27559;DHT22;15002;52.028;5.670;2023-10-08T02:26:54;20.10;99.90
27559;DHT22;15002;52.028;5.670;2023-10-08T02:29:25;20.00;99.90
27559;DHT22;15002;52.028;5.670;2023-10-08T02:31:51;20.10;99.90
27559;DHT22;15002;52.028;5.670;2023-10-08T02:34:19;20.00;99.90
27559;DHT22;15002;52.028;5.670;2023-10-08T02:36:45;20.10;99.90
27559;DHT22;15002;52.028;5.670;2023-10-08T02:39:13;19.90;99.90
27559;DHT22;15002;52.028;5.670;2023-10-08T02:41:43;20.00;99.90
27559;DHT22;15002;52.028;5.670;2023-10-08T02:44:12;20.40;99.90
27559;DHT22;15002;52.028;5.670;2023-10-08T02:46:43;20.40;99.90
27559;DHT22;15002;52.028;5.670;2023-10-08T02:49:16;20.10;99.90
27559;DHT22;15002;52.028;5.670;2023-10-08T02:51:52;20.10;99.90
27559;DHT22;15002;52.028;5.670;2023-10-08T02:54:19;20.00;99.90
27559;DHT22;15002;52.028;5.670;2023-10-08T02:56:58;20.00;99.90
27559;DHT22;15002;52.028;5.670;2023-10-08T02:59:33;20.10;99.90
27559;DHT22;15002;52.028;5.670;2023-10-08T03:02:07;20.30;99.90
27559;DHT22;15002;52.028;5.670;2023-10-08T03:04:43;20.30;99.90
27559;DHT22;15002;52.028;5.670;2023-10-08T03:07:14;20.10;99.90
27559;DHT22;15002;52.028;5.670;2023-10-08T03:09:58;20.00;99.90
27559;DHT22;15002;52.028;5.670;2023-10-08T03:12:44;20.10;99.90
27559;DHT22;15002;52.028;5.670;2023-10-08T03:15:12;20.00;99.90
27559;DHT22;15002;52.028;5.670;2023-10-08T03:17:39;20.10;99.90
27559;DHT22;15002;52.028;5.670;2023-10-08T03:20:15;20.20;99.90
27559;DHT22;15002;52.028;5.670;2023-10-08T03:22:59;20.00;99.90
27559;DHT22;15002;52.028;5.670;2023-10-08T03:25:25;20.00;99.90
27559;DHT22;15002;52.028;5.670;2023-10-08T03:27:52;20.10;99.90
27559;DHT22;15002;52.028;5.670;2023-10-08T03:30:20;20.00;99.90
27559;DHT22;15002;52.028;5.670;2023-10-08T03:32:45;20.00;99.90
27559;DHT22;15002;52.028;5.670;2023-10-08T03:35:16;20.00;99.90
27559;DHT22;15002;52.028;5.670;2023-10-08T03:37:48;20.00;99.90
27559;DHT22;15002;52.028;5.670;2023-10-08T03:40:16;20.20;99.90
27559;DHT22;15002;52.028;5.670;2023-10-08T03:43:00;20.20;99.90
27559;DHT22;15002;52.028;5.670;2023-10-08T03:45:27;20.10;99.90
27559;DHT22;15002;52.028;5.670;2023-10-08T03:48:11;20.00;99.90
27559;DHT22;15002;52.028;5.670;2023-10-08T03:50:40;19.80;99.90
27559;DHT22;15002;52.028;5.670;2023-10-08T03:53:08;19.70;99.90
27559;DHT22;15002;52.028;5.670;2023-10-08T03:55:40;19.70;99.90
27559;DHT22;15002;52.028;5.670;2023-10-08T03:58:07;19.80;99.90
27559;DHT22;15002;52.028;5.670;2023-10-08T04:00:53;19.70;99.90
27559;DHT22;15002;52.028;5.670;2023-10-08T04:03:32;19.70;99.90
27559;DHT22;15002;52.028;5.670;2023-10-08T04:06:19;19.70;99.90
27559;DHT22;15002;52.028;5.670;2023-10-08T04:08:48;19.60;99.90
27559;DHT22;15002;52.028;5.670;2023-10-08T04:11:33;19.70;99.90
27559;DHT22;15002;52.028;5.670;2023-10-08T04:14:02;19.80;99.90
27559;DHT22;15002;52.028;5.670;2023-10-08T04:16:32;19.70;99.90
27559;DHT22;15002;52.028;5.670;2023-10-08T04:19:05;19.60;99.90
27559;DHT22;15002;52.028;5.670;2023-10-08T04:21:31;19.50;99.90
27559;DHT22;15002;52.028;5.670;2023-10-08T04:23:59;19.60;99.90
27559;DHT22;15002;52.028;5.670;2023-10-08T04:26:32;19.50;99.90
27559;DHT22;15002;52.028;5.670;2023-10-08T04:28:59;19.60;99.90
27559;DHT22;15002;52.028;5.670;2023-10-08T04:31:31;19.60;99.90
27559;DHT22;15002;52.028;5.670;2023-10-08T04:34:03;19.60;99.90
27559;DHT22;15002;52.028;5.670;2023-10-08T04:36:44;19.60;99.90
27559;DHT22;15002;52.028;5.670;2023-10-08T04:39:21;19.80;99.90
27559;DHT22;15002;52.028;5.670;2023-10-08T04:42:13;19.80;99.90
27559;DHT22;15002;52.028;5.670;2023-10-08T04:44:40;19.70;99.90
27559;DHT22;15002;52.028;5.670;2023-10-08T04:47:09;19.60;99.90
27559;DHT22;15002;52.028;5.670;2023-10-08T04:49:37;19.10;99.90
27559;DHT22;15002;52.028;5.670;2023-10-08T04:52:11;18.50;99.90
27559;DHT22;15002;52.028;5.670;2023-10-08T04:54:41;18.50;99.90
27559;DHT22;15002;52.028;5.670;2023-10-08T04:57:12;18.30;99.90
27559;DHT22;15002;52.028;5.670;2023-10-08T04:59:43;18.40;99.90
27559;DHT22;15002;52.028;5.670;2023-10-08T05:02:10;18.00;99.90
27559;DHT22;15002;52.028;5.670;2023-10-08T05:04:50;18.10;99.90
27559;DHT22;15002;52.028;5.670;2023-10-08T05:07:34;18.10;99.90
27559;DHT22;15002;52.028;5.670;2023-10-08T05:10:15;18.40;99.90
27559;DHT22;15002;52.028;5.670;2023-10-08T05:13:07;18.30;99.90
27559;DHT22;15002;52.028;5.670;2023-10-08T05:15:33;18.20;99.90
27559;DHT22;15002;52.028;5.670;2023-10-08T05:18:01;17.90;99.90
27559;DHT22;15002;52.028;5.670;2023-10-08T05:20:50;17.90;99.90
27559;DHT22;15002;52.028;5.670;2023-10-08T05:23:17;18.00;99.90
27559;DHT22;15002;52.028;5.670;2023-10-08T05:25:56;18.10;99.90
27559;DHT22;15002;52.028;5.670;2023-10-08T05:28:32;17.90;99.90
27559;DHT22;15002;52.028;5.670;2023-10-08T05:31:11;17.70;99.90
27559;DHT22;15002;52.028;5.670;2023-10-08T05:33:39;17.90;99.90
27559;DHT22;15002;52.028;5.670;2023-10-08T05:36:24;17.80;99.90
27559;DHT22;15002;52.028;5.670;2023-10-08T05:39:12;17.30;99.90
27559;DHT22;15002;52.028;5.670;2023-10-08T05:41:50;17.30;99.90
27559;DHT22;15002;52.028;5.670;2023-10-08T05:44:36;17.10;99.90
27559;DHT22;15002;52.028;5.670;2023-10-08T05:47:06;17.00;99.90
27559;DHT22;15002;52.028;5.670;2023-10-08T05:49:38;17.00;99.90
27559;DHT22;15002;52.028;5.670;2023-10-08T05:52:07;16.80;99.90
27559;DHT22;15002;52.028;5.670;2023-10-08T05:54:35;17.00;99.90
27559;DHT22;15002;52.028;5.670;2023-10-08T05:57:12;16.90;99.90
27559;DHT22;15002;52.028;5.670;2023-10-08T05:59:42;17.60;99.90
27559;DHT22;15002;52.028;5.670;2023-10-08T06:02:30;17.30;99.90
27559;DHT22;15002;52.028;5.670;2023-10-08T06:05:16;16.90;99.90
27559;DHT22;15002;52.028;5.670;2023-10-08T06:07:53;16.60;99.90
27559;DHT22;15002;52.028;5.670;2023-10-08T06:12:55;16.70;99.90
27559;DHT22;15002;52.028;5.670;2023-10-08T06:15:28;16.90;99.90
27559;DHT22;15002;52.028;5.670;2023-10-08T06:18:14;16.90;99.90
27559;DHT22;15002;52.028;5.670;2023-10-08T06:20:41;16.60;99.90
27559;DHT22;15002;52.028;5.670;2023-10-08T06:23:10;16.60;99.90
27559;DHT22;15002;52.028;5.670;2023-10-08T06:25:38;16.50;99.90
27559;DHT22;15002;52.028;5.670;2023-10-08T06:28:16;16.50;99.90
27559;DHT22;15002;52.028;5.670;2023-10-08T06:30:49;16.50;99.90
27559;DHT22;15002;52.028;5.670;2023-10-08T06:33:19;16.60;99.90
27559;DHT22;15002;52.028;5.670;2023-10-08T06:35:44;16.30;99.90
27559;DHT22;15002;52.028;5.670;2023-10-08T06:38:11;16.30;99.90
27559;DHT22;15002;52.028;5.670;2023-10-08T06:40:40;16.20;99.90
27559;DHT22;15002;52.028;5.670;2023-10-08T06:43:06;16.10;99.90
27559;DHT22;15002;52.028;5.670;2023-10-08T06:45:43;16.10;99.90
27559;DHT22;15002;52.028;5.670;2023-10-08T06:48:10;16.20;99.90
27559;DHT22;15002;52.028;5.670;2023-10-08T06:50:44;16.20;99.90
27559;DHT22;15002;52.028;5.670;2023-10-08T06:53:10;16.50;99.90
27559;DHT22;15002;52.028;5.670;2023-10-08T06:55:39;16.70;99.90
27559;DHT22;15002;52.028;5.670;2023-10-08T06:58:05;16.70;99.90
27559;DHT22;15002;52.028;5.670;2023-10-08T07:00:37;16.50;99.90
27559;DHT22;15002;52.028;5.670;2023-10-08T07:03:09;16.20;99.90
27559;DHT22;15002;52.028;5.670;2023-10-08T07:05:41;16.40;99.90
27559;DHT22;15002;52.028;5.670;2023-10-08T07:08:08;16.20;99.90
27559;DHT22;15002;52.028;5.670;2023-10-08T07:10:34;16.30;99.90
27559;DHT22;15002;52.028;5.670;2023-10-08T07:13:00;16.40;99.90
27559;DHT22;15002;52.028;5.670;2023-10-08T07:15:29;16.60;99.90
27559;DHT22;15002;52.028;5.670;2023-10-08T07:17:56;16.60;99.90
27559;DHT22;15002;52.028;5.670;2023-10-08T07:20:22;17.00;99.90
27559;DHT22;15002;52.028;5.670;2023-10-08T07:22:48;16.70;99.90
27559;DHT22;15002;52.028;5.670;2023-10-08T07:25:21;16.70;99.90
27559;DHT22;15002;52.028;5.670;2023-10-08T07:27:47;16.80;99.90
27559;DHT22;15002;52.028;5.670;2023-10-08T07:30:13;16.70;99.90
27559;DHT22;15002;52.028;5.670;2023-10-08T07:32:39;16.70;99.90
27559;DHT22;15002;52.028;5.670;2023-10-08T07:35:05;17.00;99.90
27559;DHT22;15002;52.028;5.670;2023-10-08T07:37:50;17.20;99.90
27559;DHT22;15002;52.028;5.670;2023-10-08T07:40:16;17.20;99.90
27559;DHT22;15002;52.028;5.670;2023-10-08T07:42:43;17.20;99.90
27559;DHT22;15002;52.028;5.670;2023-10-08T07:45:09;17.00;99.90
27559;DHT22;15002;52.028;5.670;2023-10-08T07:47:41;16.90;99.90
27559;DHT22;15002;52.028;5.670;2023-10-08T07:50:08;17.40;99.90
27559;DHT22;15002;52.028;5.670;2023-10-08T07:52:38;17.50;99.90
27559;DHT22;15002;52.028;5.670;2023-10-08T07:55:04;17.60;99.90
27559;DHT22;15002;52.028;5.670;2023-10-08T07:57:33;17.80;99.90
27559;DHT22;15002;52.028;5.670;2023-10-08T07:59:58;17.40;99.90
27559;DHT22;15002;52.028;5.670;2023-10-08T08:02:44;17.60;99.90
27559;DHT22;15002;52.028;5.670;2023-10-08T08:05:10;17.30;99.90
27559;DHT22;15002;52.028;5.670;2023-10-08T08:07:40;17.10;99.90
27559;DHT22;15002;52.028;5.670;2023-10-08T08:10:07;17.30;99.90
27559;DHT22;15002;52.028;5.670;2023-10-08T08:12:36;17.10;99.90
27559;DHT22;15002;52.028;5.670;2023-10-08T08:15:03;17.30;99.90
27559;DHT22;15002;52.028;5.670;2023-10-08T08:17:43;17.60;99.90
27559;DHT22;15002;52.028;5.670;2023-10-08T08:20:09;17.80;99.90
27559;DHT22;15002;52.028;5.670;2023-10-08T08:22:45;17.60;99.90
27559;DHT22;15002;52.028;5.670;2023-10-08T08:25:19;17.70;99.90
27559;DHT22;15002;52.028;5.670;2023-10-08T08:28:08;17.70;99.90
27559;DHT22;15002;52.028;5.670;2023-10-08T08:30:43;17.30;99.90
27559;DHT22;15002;52.028;5.670;2023-10-08T08:33:15;17.60;99.90
27559;DHT22;15002;52.028;5.670;2023-10-08T08:36:05;17.30;99.90
27559;DHT22;15002;52.028;5.670;2023-10-08T08:38:31;17.50;99.90
27559;DHT22;15002;52.028;5.670;2023-10-08T08:41:04;17.50;99.90
27559;DHT22;15002;52.028;5.670;2023-10-08T08:43:34;17.90;99.90
27559;DHT22;15002;52.028;5.670;2023-10-08T08:46:04;18.10;99.90
27559;DHT22;15002;52.028;5.670;2023-10-08T08:48:36;18.00;99.90
27559;DHT22;15002;52.028;5.670;2023-10-08T08:51:04;17.80;99.90
27559;DHT22;15002;52.028;5.670;2023-10-08T08:53:32;17.90;99.90
27559;DHT22;15002;52.028;5.670;2023-10-08T08:55:59;17.90;99.90
27559;DHT22;15002;52.028;5.670;2023-10-08T08:58:32;17.90;99.90
27559;DHT22;15002;52.028;5.670;2023-10-08T09:00:59;17.60;99.90
27559;DHT22;15002;52.028;5.670;2023-10-08T09:03:25;17.50;99.90
27559;DHT22;15002;52.028;5.670;2023-10-08T09:05:58;17.50;99.90
27559;DHT22;15002;52.028;5.670;2023-10-08T09:08:28;17.70;99.90
27559;DHT22;15002;52.028;5.670;2023-10-08T09:10:58;18.00;99.90
27559;DHT22;15002;52.028;5.670;2023-10-08T09:13:27;18.10;99.90
27559;DHT22;15002;52.028;5.670;2023-10-08T09:15:57;18.30;99.90
27559;DHT22;15002;52.028;5.670;2023-10-08T09:18:29;18.50;99.90
27559;DHT22;15002;52.028;5.670;2023-10-08T09:21:07;18.60;99.90
27559;DHT22;15002;52.028;5.670;2023-10-08T09:23:42;18.60;99.90
27559;DHT22;15002;52.028;5.670;2023-10-08T09:26:13;18.70;99.90
27559;DHT22;15002;52.028;5.670;2023-10-08T09:28:49;18.50;99.90
27559;DHT22;15002;52.028;5.670;2023-10-08T09:31:16;18.40;99.90
27559;DHT22;15002;52.028;5.670;2023-10-08T09:33:54;18.00;99.90
27559;DHT22;15002;52.028;5.670;2023-10-08T09:36:20;18.00;99.90
27559;DHT22;15002;52.028;5.670;2023-10-08T09:38:50;18.00;99.90
27559;DHT22;15002;52.028;5.670;2023-10-08T09:41:19;18.30;99.90
27559;DHT22;15002;52.028;5.670;2023-10-08T09:43:46;18.20;99.90
27559;DHT22;15002;52.028;5.670;2023-10-08T09:46:18;17.90;99.90
27559;DHT22;15002;52.028;5.670;2023-10-08T09:48:49;18.00;99.90
27559;DHT22;15002;52.028;5.670;2023-10-08T09:51:16;17.80;99.90
27559;DHT22;15002;52.028;5.670;2023-10-08T09:54:08;18.10;99.90
27559;DHT22;15002;52.028;5.670;2023-10-08T09:56:36;18.10;99.90
27559;DHT22;15002;52.028;5.670;2023-10-08T09:59:02;17.80;99.90
27559;DHT22;15002;52.028;5.670;2023-10-08T10:01:28;17.90;99.90
27559;DHT22;15002;52.028;5.670;2023-10-08T10:03:57;18.40;99.90
27559;DHT22;15002;52.028;5.670;2023-10-08T10:06:26;18.70;99.90
27559;DHT22;15002;52.028;5.670;2023-10-08T10:08:55;18.90;99.90
27559;DHT22;15002;52.028;5.670;2023-10-08T10:11:26;19.00;99.90
27559;DHT22;15002;52.028;5.670;2023-10-08T10:14:03;18.60;99.90
27559;DHT22;15002;52.028;5.670;2023-10-08T10:16:31;18.60;99.90
27559;DHT22;15002;52.028;5.670;2023-10-08T10:18:59;18.40;99.90
27559;DHT22;15002;52.028;5.670;2023-10-08T10:21:28;18.40;99.90
27559;DHT22;15002;52.028;5.670;2023-10-08T10:23:55;18.20;99.90
27559;DHT22;15002;52.028;5.670;2023-10-08T10:26:35;18.40;99.90
27559;DHT22;15002;52.028;5.670;2023-10-08T10:31:41;18.50;99.90
27559;DHT22;15002;52.028;5.670;2023-10-08T10:34:14;18.90;99.90
27559;DHT22;15002;52.028;5.670;2023-10-08T10:36:43;19.20;99.90
27559;DHT22;15002;52.028;5.670;2023-10-08T10:39:10;19.20;99.90
27559;DHT22;15002;52.028;5.670;2023-10-08T10:41:47;19.20;99.90
27559;DHT22;15002;52.028;5.670;2023-10-08T10:44:16;19.00;99.90
27559;DHT22;15002;52.028;5.670;2023-10-08T10:46:44;18.90;99.90
27559;DHT22;15002;52.028;5.670;2023-10-08T10:49:17;19.00;99.90
27559;DHT22;15002;52.028;5.670;2023-10-08T10:51:55;18.90;99.90
27559;DHT22;15002;52.028;5.670;2023-10-08T10:54:24;19.20;99.90
27559;DHT22;15002;52.028;5.670;2023-10-08T10:56:51;19.20;99.90
27559;DHT22;15002;52.028;5.670;2023-10-08T10:59:34;19.20;99.90
27559;DHT22;15002;52.028;5.670;2023-10-08T11:02:04;19.40;99.90
27559;DHT22;15002;52.028;5.670;2023-10-08T11:04:56;19.10;99.90
27559;DHT22;15002;52.028;5.670;2023-10-08T11:07:32;19.20;99.90
27559;DHT22;15002;52.028;5.670;2023-10-08T11:10:00;18.90;99.90
27559;DHT22;15002;52.028;5.670;2023-10-08T11:12:25;19.50;99.90
27559;DHT22;15002;52.028;5.670;2023-10-08T11:15:11;19.40;99.90
27559;DHT22;15002;52.028;5.670;2023-10-08T11:17:41;19.30;99.90
27559;DHT22;15002;52.028;5.670;2023-10-08T11:20:27;19.40;99.90
27559;DHT22;15002;52.028;5.670;2023-10-08T11:22:53;19.60;99.90
27559;DHT22;15002;52.028;5.670;2023-10-08T11:25:55;19.50;99.90
27559;DHT22;15002;52.028;5.670;2023-10-08T11:28:25;19.60;99.90
27559;DHT22;15002;52.028;5.670;2023-10-08T11:30:53;19.50;99.90
27559;DHT22;15002;52.028;5.670;2023-10-08T11:33:19;19.40;99.90
27559;DHT22;15002;52.028;5.670;2023-10-08T11:36:00;19.90;99.90
27559;DHT22;15002;52.028;5.670;2023-10-08T11:38:26;20.00;99.90
27559;DHT22;15002;52.028;5.670;2023-10-08T11:40:54;19.90;99.90
27559;DHT22;15002;52.028;5.670;2023-10-08T11:43:23;20.00;99.90
27559;DHT22;15002;52.028;5.670;2023-10-08T11:45:49;20.00;99.90
27559;DHT22;15002;52.028;5.670;2023-10-08T11:48:15;19.80;99.90
27559;DHT22;15002;52.028;5.670;2023-10-08T11:50:47;19.80;99.90
27559;DHT22;15002;52.028;5.670;2023-10-08T11:53:16;19.60;99.90
27559;DHT22;15002;52.028;5.670;2023-10-08T11:55:44;19.30;99.90
27559;DHT22;15002;52.028;5.670;2023-10-08T11:58:13;19.60;99.90
27559;DHT22;15002;52.028;5.670;2023-10-08T12:00:43;19.50;99.90
27559;DHT22;15002;52.028;5.670;2023-10-08T12:03:13;19.50;99.90
27559;DHT22;15002;52.028;5.670;2023-10-08T12:05:44;19.50;99.90
27559;DHT22;15002;52.028;5.670;2023-10-08T12:08:14;19.50;99.90
27559;DHT22;15002;52.028;5.670;2023-10-08T12:10:45;19.50;99.90
27559;DHT22;15002;52.028;5.670;2023-10-08T12:13:14;19.60;99.90
27559;DHT22;15002;52.028;5.670;2023-10-08T12:15:44;19.80;99.90
27559;DHT22;15002;52.028;5.670;2023-10-08T12:18:10;20.10;99.90
27559;DHT22;15002;52.028;5.670;2023-10-08T12:20:50;20.30;99.90
27559;DHT22;15002;52.028;5.670;2023-10-08T12:23:16;20.00;99.90
27559;DHT22;15002;52.028;5.670;2023-10-08T12:25:55;19.90;99.90
27559;DHT22;15002;52.028;5.670;2023-10-08T12:28:24;19.90;99.90
27559;DHT22;15002;52.028;5.670;2023-10-08T12:30:50;19.80;99.90
27559;DHT22;15002;52.028;5.670;2023-10-08T12:33:23;19.80;99.90
27559;DHT22;15002;52.028;5.670;2023-10-08T12:35:52;20.00;99.90
27559;DHT22;15002;52.028;5.670;2023-10-08T12:38:30;20.20;99.90
27559;DHT22;15002;52.028;5.670;2023-10-08T12:40:57;20.10;99.90
27559;DHT22;15002;52.028;5.670;2023-10-08T12:43:25;20.00;99.90
27559;DHT22;15002;52.028;5.670;2023-10-08T12:45:54;20.20;99.90
27559;DHT22;15002;52.028;5.670;2023-10-08T12:48:26;20.10;99.90
27559;DHT22;15002;52.028;5.670;2023-10-08T12:50:56;20.00;99.90
27559;DHT22;15002;52.028;5.670;2023-10-08T12:53:27;19.60;99.90
27559;DHT22;15002;52.028;5.670;2023-10-08T12:56:05;19.40;99.90
27559;DHT22;15002;52.028;5.670;2023-10-08T12:58:33;19.50;99.90
27559;DHT22;15002;52.028;5.670;2023-10-08T13:01:05;19.50;99.90
27559;DHT22;15002;52.028;5.670;2023-10-08T13:03:32;19.40;99.90
27559;DHT22;15002;52.028;5.670;2023-10-08T13:05:59;19.00;99.90
27559;DHT22;15002;52.028;5.670;2023-10-08T13:08:31;19.60;99.90
27559;DHT22;15002;52.028;5.670;2023-10-08T13:11:00;19.90;99.90
27559;DHT22;15002;52.028;5.670;2023-10-08T13:13:32;20.10;99.90
27559;DHT22;15002;52.028;5.670;2023-10-08T13:15:59;20.20;99.90
27559;DHT22;15002;52.028;5.670;2023-10-08T13:18:28;20.40;99.90
27559;DHT22;15002;52.028;5.670;2023-10-08T13:20:54;20.40;99.90
27559;DHT22;15002;52.028;5.670;2023-10-08T13:23:21;20.60;99.90
27559;DHT22;15002;52.028;5.670;2023-10-08T13:25:49;20.50;99.90
27559;DHT22;15002;52.028;5.670;2023-10-08T13:28:22;20.50;99.90
27559;DHT22;15002;52.028;5.670;2023-10-08T13:30:51;20.50;99.90
27559;DHT22;15002;52.028;5.670;2023-10-08T13:33:24;20.50;99.90
27559;DHT22;15002;52.028;5.670;2023-10-08T13:35:50;20.50;99.90
27559;DHT22;15002;52.028;5.670;2023-10-08T13:38:19;20.40;99.90
27559;DHT22;15002;52.028;5.670;2023-10-08T13:40:49;20.00;99.90
27559;DHT22;15002;52.028;5.670;2023-10-08T13:43:34;20.10;99.90
27559;DHT22;15002;52.028;5.670;2023-10-08T13:46:04;20.50;99.90
27559;DHT22;15002;52.028;5.670;2023-10-08T13:48:32;20.70;99.90
27559;DHT22;15002;52.028;5.670;2023-10-08T13:51:05;20.60;99.90
27559;DHT22;15002;52.028;5.670;2023-10-08T13:53:34;20.60;99.90
27559;DHT22;15002;52.028;5.670;2023-10-08T13:56:03;20.50;99.90
27559;DHT22;15002;52.028;5.670;2023-10-08T13:58:30;20.30;99.90
27559;DHT22;15002;52.028;5.670;2023-10-08T14:00:59;20.30;99.90
27559;DHT22;15002;52.028;5.670;2023-10-08T14:03:29;20.30;99.90
27559;DHT22;15002;52.028;5.670;2023-10-08T14:05:57;20.60;99.90
27559;DHT22;15002;52.028;5.670;2023-10-08T14:08:28;20.60;99.90
27559;DHT22;15002;52.028;5.670;2023-10-08T14:10:54;20.30;99.90
27559;DHT22;15002;52.028;5.670;2023-10-08T14:13:25;20.20;99.90
27559;DHT22;15002;52.028;5.670;2023-10-08T14:15:52;20.10;99.90
27559;DHT22;15002;52.028;5.670;2023-10-08T14:18:25;19.70;99.90
27559;DHT22;15002;52.028;5.670;2023-10-08T14:21:07;20.20;99.90
27559;DHT22;15002;52.028;5.670;2023-10-08T14:23:36;19.60;99.90
27559;DHT22;15002;52.028;5.670;2023-10-08T14:26:07;19.90;99.90
27559;DHT22;15002;52.028;5.670;2023-10-08T14:28:34;20.00;99.90
27559;DHT22;15002;52.028;5.670;2023-10-08T14:31:08;20.20;99.90
27559;DHT22;15002;52.028;5.670;2023-10-08T14:33:34;20.10;99.90
27559;DHT22;15002;52.028;5.670;2023-10-08T14:36:10;20.00;99.90
27559;DHT22;15002;52.028;5.670;2023-10-08T14:38:54;19.90;99.90
27559;DHT22;15002;52.028;5.670;2023-10-08T14:41:39;20.20;99.90
27559;DHT22;15002;52.028;5.670;2023-10-08T14:44:23;20.30;99.90
27559;DHT22;15002;52.028;5.670;2023-10-08T14:46:50;20.30;99.90
27559;DHT22;15002;52.028;5.670;2023-10-08T14:49:16;20.40;99.90
27559;DHT22;15002;52.028;5.670;2023-10-08T14:51:42;20.20;99.90
27559;DHT22;15002;52.028;5.670;2023-10-08T14:54:08;20.10;99.90
27559;DHT22;15002;52.028;5.670;2023-10-08T14:56:35;19.90;99.90
27559;DHT22;15002;52.028;5.670;2023-10-08T14:59:02;19.60;99.90
27559;DHT22;15002;52.028;5.670;2023-10-08T15:01:29;19.70;99.90
27559;DHT22;15002;52.028;5.670;2023-10-08T15:03:59;20.10;99.90
27559;DHT22;15002;52.028;5.670;2023-10-08T15:06:29;19.60;99.90
27559;DHT22;15002;52.028;5.670;2023-10-08T15:08:55;19.60;99.90
27559;DHT22;15002;52.028;5.670;2023-10-08T15:11:23;19.30;99.90
27559;DHT22;15002;52.028;5.670;2023-10-08T15:13:48;19.60;99.90
27559;DHT22;15002;52.028;5.670;2023-10-08T15:16:19;19.90;99.90
27559;DHT22;15002;52.028;5.670;2023-10-08T15:18:49;20.10;99.90
27559;DHT22;15002;52.028;5.670;2023-10-08T15:21:14;20.30;99.90
27559;DHT22;15002;52.028;5.670;2023-10-08T15:23:40;20.20;99.90
27559;DHT22;15002;52.028;5.670;2023-10-08T15:26:06;19.90;99.90
27559;DHT22;15002;52.028;5.670;2023-10-08T15:28:32;19.90;99.90
27559;DHT22;15002;52.028;5.670;2023-10-08T15:30:58;19.50;99.90
27559;DHT22;15002;52.028;5.670;2023-10-08T15:33:24;19.60;99.90
27559;DHT22;15002;52.028;5.670;2023-10-08T15:35:52;19.60;99.90
27559;DHT22;15002;52.028;5.670;2023-10-08T15:38:17;19.20;99.90
27559;DHT22;15002;52.028;5.670;2023-10-08T15:40:43;19.30;99.90
27559;DHT22;15002;52.028;5.670;2023-10-08T15:43:10;19.10;99.90
27559;DHT22;15002;52.028;5.670;2023-10-08T15:45:37;19.50;99.90
27559;DHT22;15002;52.028;5.670;2023-10-08T15:48:03;19.70;99.90
27559;DHT22;15002;52.028;5.670;2023-10-08T15:50:30;19.60;99.90
27559;DHT22;15002;52.028;5.670;2023-10-08T15:52:58;19.70;99.90
27559;DHT22;15002;52.028;5.670;2023-10-08T15:55:24;19.60;99.90
27559;DHT22;15002;52.028;5.670;2023-10-08T15:57:54;19.80;99.90
27559;DHT22;15002;52.028;5.670;2023-10-08T16:00:20;19.80;99.90
27559;DHT22;15002;52.028;5.670;2023-10-08T16:02:46;19.60;99.90